CEB412 RPVI-RPMR
Flight info
| Callsign | CEB412 |
|---|---|
| Flight time | 1h 7m |
| Altitude | 39000 |
| Route | NNS3C NANAS B472 COT W19 MELBY MELBY3P |
| Aircraft | A339/H-SADE1E2E3GHIJ3J5M1P2RWXY/LB2D1 |
Departure
| Time | 2026-04-24 11:40 |
|---|---|
| Airport | Iloilo International Airport (RPVI) |
Arrival
| Time | 2026-04-24 12:48 |
|---|---|
| Airport | General Santos International Airport (RPMR) |
| Time | Latitude | Longitude | Altitude | Speed | Heading |
|---|---|---|---|---|---|
| 2026-04-24 11:22 | 10.83117 | 122.49640 | 183 ft | 0 kts | 110° |
| 2026-04-24 11:31 | 10.83118 | 122.49638 | 183 ft | 1 kts | 110° |
| 2026-04-24 11:31 | 10.83123 | 122.49625 | 183 ft | 2 kts | 109° |
| 2026-04-24 11:31 | 10.83128 | 122.49609 | 183 ft | 2 kts | 111° |
| 2026-04-24 11:31 | 10.83135 | 122.49596 | 184 ft | 2 kts | 134° |
| 2026-04-24 11:32 | 10.83147 | 122.49586 | 184 ft | 2 kts | 153° |
| 2026-04-24 11:32 | 10.83161 | 122.49581 | 184 ft | 2 kts | 171° |
| 2026-04-24 11:32 | 10.83176 | 122.49581 | 184 ft | 2 kts | 189° |
| 2026-04-24 11:32 | 10.83184 | 122.49583 | 184 ft | 0 kts | 200° |
| 2026-04-24 11:33 | 10.83169 | 122.49578 | 184 ft | 5 kts | 198° |
| 2026-04-24 11:33 | 10.83146 | 122.49570 | 184 ft | 0 kts | 200° |
| 2026-04-24 11:33 | 10.83146 | 122.49569 | 184 ft | 0 kts | 200° |
| 2026-04-24 11:34 | 10.83143 | 122.49568 | 183 ft | 1 kts | 200° |
| 2026-04-24 11:35 | 10.83127 | 122.49562 | 184 ft | 3 kts | 200° |
| 2026-04-24 11:35 | 10.83095 | 122.49551 | 184 ft | 6 kts | 200° |
| 2026-04-24 11:35 | 10.83049 | 122.49533 | 184 ft | 6 kts | 208° |
| 2026-04-24 11:35 | 10.83031 | 122.49485 | 184 ft | 8 kts | 275° |
| 2026-04-24 11:36 | 10.83049 | 122.49420 | 184 ft | 10 kts | 290° |
| 2026-04-24 11:36 | 10.83076 | 122.49348 | 184 ft | 11 kts | 290° |
| 2026-04-24 11:36 | 10.83093 | 122.49274 | 184 ft | 8 kts | 255° |
| 2026-04-24 11:36 | 10.83057 | 122.49250 | 184 ft | 5 kts | 204° |
| 2026-04-24 11:37 | 10.83013 | 122.49230 | 184 ft | 8 kts | 203° |
| 2026-04-24 11:37 | 10.82947 | 122.49205 | 184 ft | 11 kts | 200° |
| 2026-04-24 11:37 | 10.82859 | 122.49172 | 184 ft | 14 kts | 200° |
| 2026-04-24 11:37 | 10.82751 | 122.49133 | 184 ft | 17 kts | 200° |
| 2026-04-24 11:38 | 10.82629 | 122.49088 | 184 ft | 19 kts | 200° |
| 2026-04-24 11:38 | 10.82496 | 122.49039 | 184 ft | 21 kts | 200° |
| 2026-04-24 11:38 | 10.82374 | 122.48993 | 184 ft | 9 kts | 200° |
| 2026-04-24 11:38 | 10.82302 | 122.48987 | 184 ft | 10 kts | 175° |
| 2026-04-24 11:39 | 10.82269 | 122.48977 | 184 ft | 2 kts | 256° |
| 2026-04-24 11:39 | 10.82289 | 122.48966 | 184 ft | 5 kts | 1° |
| 2026-04-24 11:39 | 10.82332 | 122.48978 | 184 ft | 6 kts | 19° |
| 2026-04-24 11:39 | 10.82353 | 122.48985 | 184 ft | 15 kts | 20° |
| 2026-04-24 11:40 | 10.82730 | 122.49124 | 184 ft | 98 kts | 20° |
| 2026-04-24 11:40 | 10.83607 | 122.49447 | 224 ft | 162 kts | 21° |
| 2026-04-24 11:40 | 10.84698 | 122.49850 | 899 ft | 171 kts | 21° |
| 2026-04-24 11:40 | 10.85718 | 122.50385 | 1788 ft | 168 kts | 50° |
| 2026-04-24 11:41 | 10.86203 | 122.51434 | 2422 ft | 171 kts | 83° |
| 2026-04-24 11:41 | 10.85971 | 122.52659 | 2748 ft | 191 kts | 119° |
| 2026-04-24 11:41 | 10.84887 | 122.53555 | 3061 ft | 216 kts | 153° |
| 2026-04-24 11:41 | 10.83431 | 122.54153 | 3416 ft | 234 kts | 154° |
| 2026-04-24 11:42 | 10.81878 | 122.54809 | 3791 ft | 252 kts | 154° |
| 2026-04-24 11:42 | 10.80214 | 122.55516 | 4246 ft | 267 kts | 154° |
| 2026-04-24 11:42 | 10.78463 | 122.56259 | 4958 ft | 271 kts | 154° |
| 2026-04-24 11:42 | 10.76732 | 122.56994 | 5707 ft | 273 kts | 155° |
| 2026-04-24 11:43 | 10.74970 | 122.57743 | 6432 ft | 275 kts | 155° |
| 2026-04-24 11:43 | 10.73212 | 122.58491 | 7104 ft | 279 kts | 155° |
| 2026-04-24 11:43 | 10.71400 | 122.59261 | 7764 ft | 282 kts | 155° |
| 2026-04-24 11:43 | 10.69575 | 122.60038 | 8425 ft | 285 kts | 155° |
| 2026-04-24 11:44 | 10.67728 | 122.60824 | 9089 ft | 288 kts | 155° |
| 2026-04-24 11:44 | 10.65873 | 122.61613 | 9733 ft | 291 kts | 155° |
| 2026-04-24 11:44 | 10.64001 | 122.62411 | 10344 ft | 295 kts | 155° |
| 2026-04-24 11:44 | 10.62063 | 122.63237 | 10677 ft | 310 kts | 155° |
| 2026-04-24 11:45 | 10.60022 | 122.64108 | 10967 ft | 326 kts | 155° |
| 2026-04-24 11:45 | 10.57900 | 122.65010 | 11469 ft | 333 kts | 156° |
| 2026-04-24 11:45 | 10.55733 | 122.65932 | 12120 ft | 336 kts | 156° |
| 2026-04-24 11:45 | 10.53577 | 122.66849 | 12760 ft | 338 kts | 156° |
| 2026-04-24 11:46 | 10.51379 | 122.67783 | 13382 ft | 341 kts | 156° |
| 2026-04-24 11:46 | 10.49205 | 122.68707 | 13969 ft | 344 kts | 156° |
| 2026-04-24 11:46 | 10.46981 | 122.69653 | 14511 ft | 348 kts | 156° |
| 2026-04-24 11:46 | 10.44720 | 122.70615 | 14826 ft | 351 kts | 156° |
| 2026-04-24 11:47 | 10.42454 | 122.71577 | 15101 ft | 357 kts | 156° |
| 2026-04-24 11:47 | 10.40160 | 122.72553 | 15727 ft | 358 kts | 156° |
| 2026-04-24 11:47 | 10.37862 | 122.73531 | 16338 ft | 359 kts | 156° |
| 2026-04-24 11:47 | 10.35527 | 122.74524 | 16880 ft | 363 kts | 156° |
| 2026-04-24 11:48 | 10.33180 | 122.75521 | 17409 ft | 366 kts | 156° |
| 2026-04-24 11:48 | 10.30820 | 122.76524 | 17937 ft | 370 kts | 156° |
| 2026-04-24 11:48 | 10.28460 | 122.77526 | 18467 ft | 373 kts | 155° |
| 2026-04-24 11:48 | 10.26052 | 122.78548 | 18999 ft | 375 kts | 155° |
| 2026-04-24 11:49 | 10.23629 | 122.79578 | 19526 ft | 378 kts | 155° |
| 2026-04-24 11:49 | 10.21205 | 122.80607 | 20044 ft | 381 kts | 155° |
| 2026-04-24 11:49 | 10.18726 | 122.81661 | 20562 ft | 383 kts | 155° |
| 2026-04-24 11:49 | 10.16261 | 122.82707 | 21061 ft | 386 kts | 155° |
| 2026-04-24 11:50 | 10.13766 | 122.83768 | 21554 ft | 388 kts | 155° |
| 2026-04-24 11:50 | 10.11284 | 122.84821 | 22016 ft | 391 kts | 155° |
| 2026-04-24 11:50 | 10.08778 | 122.85886 | 22466 ft | 393 kts | 155° |
| 2026-04-24 11:50 | 10.06210 | 122.86978 | 22912 ft | 397 kts | 155° |
| 2026-04-24 11:51 | 10.03673 | 122.88057 | 23329 ft | 400 kts | 155° |
| 2026-04-24 11:51 | 10.01101 | 122.89150 | 23748 ft | 403 kts | 155° |
| 2026-04-24 11:51 | 9.98488 | 122.90259 | 24173 ft | 406 kts | 155° |
| 2026-04-24 11:51 | 9.95869 | 122.91371 | 24589 ft | 409 kts | 155° |
| 2026-04-24 11:52 | 9.93240 | 122.92487 | 24997 ft | 412 kts | 155° |
| 2026-04-24 11:52 | 9.90567 | 122.93620 | 25403 ft | 415 kts | 156° |
| 2026-04-24 11:52 | 9.87874 | 122.94764 | 25807 ft | 417 kts | 156° |
| 2026-04-24 11:52 | 9.85169 | 122.95912 | 26200 ft | 420 kts | 156° |
| 2026-04-24 11:53 | 9.82429 | 122.97073 | 26591 ft | 423 kts | 156° |
| 2026-04-24 11:53 | 9.79719 | 122.98222 | 26955 ft | 425 kts | 156° |
| 2026-04-24 11:53 | 9.76984 | 122.99466 | 27313 ft | 428 kts | 155° |
| 2026-04-24 11:53 | 9.74273 | 123.00734 | 27676 ft | 431 kts | 155° |
| 2026-04-24 11:54 | 9.71539 | 123.02018 | 28025 ft | 434 kts | 155° |
| 2026-04-24 11:54 | 9.68787 | 123.03312 | 28373 ft | 436 kts | 155° |
| 2026-04-24 11:54 | 9.66016 | 123.04614 | 28710 ft | 439 kts | 155° |
| 2026-04-24 11:54 | 9.63225 | 123.05924 | 29051 ft | 442 kts | 155° |
| 2026-04-24 11:55 | 9.60428 | 123.07238 | 29425 ft | 444 kts | 155° |
| 2026-04-24 11:55 | 9.57600 | 123.08566 | 29819 ft | 445 kts | 155° |
| 2026-04-24 11:55 | 9.54805 | 123.09878 | 30214 ft | 446 kts | 155° |
| 2026-04-24 11:55 | 9.51984 | 123.11204 | 30606 ft | 447 kts | 155° |
| 2026-04-24 11:56 | 9.49133 | 123.12542 | 30990 ft | 448 kts | 155° |
| 2026-04-24 11:56 | 9.46303 | 123.13870 | 31376 ft | 449 kts | 155° |
| 2026-04-24 11:56 | 9.43479 | 123.15196 | 31733 ft | 450 kts | 155° |
| 2026-04-24 11:56 | 9.40610 | 123.16541 | 32073 ft | 452 kts | 155° |
| 2026-04-24 11:57 | 9.37763 | 123.17876 | 32426 ft | 453 kts | 155° |
| 2026-04-24 11:57 | 9.34910 | 123.19214 | 32817 ft | 454 kts | 155° |
| 2026-04-24 11:57 | 9.32021 | 123.20568 | 33178 ft | 456 kts | 155° |
| 2026-04-24 11:57 | 9.29132 | 123.21923 | 33517 ft | 458 kts | 155° |
| 2026-04-24 11:58 | 9.26228 | 123.23285 | 33872 ft | 459 kts | 155° |
| 2026-04-24 11:58 | 9.23308 | 123.24655 | 34342 ft | 459 kts | 155° |
| 2026-04-24 11:58 | 9.20435 | 123.26004 | 34830 ft | 457 kts | 155° |
| 2026-04-24 11:58 | 9.17542 | 123.27361 | 35288 ft | 456 kts | 155° |
| 2026-04-24 11:59 | 9.14653 | 123.28717 | 35694 ft | 456 kts | 155° |
| 2026-04-24 11:59 | 9.11805 | 123.30051 | 36064 ft | 456 kts | 155° |
| 2026-04-24 11:59 | 9.08926 | 123.31396 | 36421 ft | 456 kts | 155° |
| 2026-04-24 11:59 | 9.06037 | 123.32744 | 36776 ft | 456 kts | 155° |
| 2026-04-24 12:00 | 9.03140 | 123.34096 | 37125 ft | 455 kts | 155° |
| 2026-04-24 12:00 | 9.00264 | 123.35440 | 37423 ft | 456 kts | 155° |
| 2026-04-24 12:00 | 8.97391 | 123.36782 | 37662 ft | 458 kts | 155° |
| 2026-04-24 12:00 | 8.94451 | 123.38156 | 37883 ft | 459 kts | 155° |
| 2026-04-24 12:01 | 8.91577 | 123.39500 | 38106 ft | 461 kts | 155° |
| 2026-04-24 12:01 | 8.88651 | 123.40868 | 38335 ft | 462 kts | 155° |
| 2026-04-24 12:01 | 8.85918 | 123.42147 | 38551 ft | 463 kts | 155° |
| 2026-04-24 12:01 | 8.82920 | 123.43549 | 38786 ft | 464 kts | 155° |
| 2026-04-24 12:02 | 8.77100 | 123.46268 | 38877 ft | 466 kts | 155° |
| 2026-04-24 12:02 | 8.71239 | 123.49009 | 38894 ft | 465 kts | 155° |
| 2026-04-24 12:03 | 8.65339 | 123.51765 | 38908 ft | 464 kts | 155° |
| 2026-04-24 12:03 | 8.59475 | 123.54503 | 38913 ft | 464 kts | 155° |
| 2026-04-24 12:04 | 8.53620 | 123.57236 | 38919 ft | 464 kts | 155° |
| 2026-04-24 12:04 | 8.47760 | 123.59970 | 38919 ft | 464 kts | 155° |
| 2026-04-24 12:05 | 8.41884 | 123.62712 | 38931 ft | 463 kts | 155° |
| 2026-04-24 12:05 | 8.36014 | 123.65449 | 38948 ft | 463 kts | 155° |
| 2026-04-24 12:06 | 8.30416 | 123.68059 | 38960 ft | 463 kts | 155° |
| 2026-04-24 12:06 | 8.24621 | 123.70760 | 38970 ft | 462 kts | 155° |
| 2026-04-24 12:07 | 8.18756 | 123.73493 | 38966 ft | 463 kts | 155° |
| 2026-04-24 12:07 | 8.12885 | 123.76225 | 38953 ft | 463 kts | 155° |
| 2026-04-24 12:08 | 8.07006 | 123.78964 | 38942 ft | 463 kts | 155° |
| 2026-04-24 12:08 | 8.01159 | 123.81688 | 38943 ft | 463 kts | 155° |
| 2026-04-24 12:09 | 7.95294 | 123.84417 | 38944 ft | 463 kts | 155° |
| 2026-04-24 12:09 | 7.92394 | 123.85765 | 38416 ft | 460 kts | 155° |
| 2026-04-24 12:09 | 7.89491 | 123.87113 | 36945 ft | 466 kts | 154° |
| 2026-04-24 12:10 | 7.86545 | 123.88480 | 35144 ft | 473 kts | 154° |
| 2026-04-24 12:10 | 7.83554 | 123.89870 | 34128 ft | 469 kts | 154° |
| 2026-04-24 12:10 | 7.80584 | 123.91251 | 33795 ft | 461 kts | 154° |
| 2026-04-24 12:11 | 7.74790 | 123.93948 | 33127 ft | 457 kts | 153° |
| 2026-04-24 12:11 | 7.71885 | 123.95299 | 32842 ft | 455 kts | 153° |
| 2026-04-24 12:11 | 7.69029 | 123.96626 | 32585 ft | 453 kts | 153° |
| 2026-04-24 12:11 | 7.66153 | 123.97963 | 32240 ft | 452 kts | 153° |
| 2026-04-24 12:12 | 7.63329 | 123.99276 | 31833 ft | 449 kts | 153° |
| 2026-04-24 12:12 | 7.60490 | 124.00596 | 31439 ft | 446 kts | 153° |
| 2026-04-24 12:12 | 7.57690 | 124.01897 | 31061 ft | 442 kts | 153° |
| 2026-04-24 12:12 | 7.54904 | 124.03192 | 30682 ft | 439 kts | 153° |
| 2026-04-24 12:13 | 7.52118 | 124.04486 | 30298 ft | 435 kts | 153° |
| 2026-04-24 12:13 | 7.49378 | 124.05759 | 29920 ft | 432 kts | 153° |
| 2026-04-24 12:13 | 7.46670 | 124.07017 | 29541 ft | 429 kts | 153° |
| 2026-04-24 12:13 | 7.43950 | 124.08280 | 29158 ft | 426 kts | 153° |
| 2026-04-24 12:14 | 7.41273 | 124.09521 | 28781 ft | 423 kts | 153° |
| 2026-04-24 12:14 | 7.38615 | 124.10757 | 28411 ft | 421 kts | 153° |
| 2026-04-24 12:14 | 7.35952 | 124.11993 | 28059 ft | 418 kts | 153° |
| 2026-04-24 12:14 | 7.33316 | 124.13217 | 27711 ft | 415 kts | 153° |
| 2026-04-24 12:15 | 7.30689 | 124.14437 | 27359 ft | 412 kts | 153° |
| 2026-04-24 12:15 | 7.28097 | 124.15641 | 27015 ft | 409 kts | 153° |
| 2026-04-24 12:15 | 7.25532 | 124.16831 | 26671 ft | 407 kts | 153° |
| 2026-04-24 12:15 | 7.22946 | 124.18031 | 26323 ft | 404 kts | 153° |
| 2026-04-24 12:16 | 7.20401 | 124.19212 | 25983 ft | 401 kts | 152° |
| 2026-04-24 12:16 | 7.17916 | 124.20493 | 25640 ft | 397 kts | 147° |
| 2026-04-24 12:16 | 7.15590 | 124.21948 | 25290 ft | 393 kts | 143° |
| 2026-04-24 12:16 | 7.13405 | 124.23576 | 24942 ft | 389 kts | 139° |
| 2026-04-24 12:17 | 7.11296 | 124.25274 | 24595 ft | 387 kts | 138° |
| 2026-04-24 12:17 | 7.09197 | 124.26981 | 24243 ft | 384 kts | 138° |
| 2026-04-24 12:17 | 7.07112 | 124.28678 | 23899 ft | 381 kts | 138° |
| 2026-04-24 12:17 | 7.05059 | 124.30347 | 23575 ft | 378 kts | 138° |
| 2026-04-24 12:18 | 7.03029 | 124.31995 | 23257 ft | 376 kts | 138° |
| 2026-04-24 12:18 | 7.00989 | 124.33649 | 22927 ft | 373 kts | 138° |
| 2026-04-24 12:18 | 6.98976 | 124.35282 | 22601 ft | 370 kts | 138° |
| 2026-04-24 12:18 | 6.96985 | 124.36897 | 22258 ft | 369 kts | 138° |
| 2026-04-24 12:19 | 6.94971 | 124.38528 | 21922 ft | 367 kts | 138° |
| 2026-04-24 12:19 | 6.92996 | 124.40128 | 21584 ft | 365 kts | 137° |
| 2026-04-24 12:19 | 6.91021 | 124.41730 | 21239 ft | 364 kts | 137° |
| 2026-04-24 12:19 | 6.89039 | 124.43336 | 20890 ft | 363 kts | 138° |
| 2026-04-24 12:20 | 6.87081 | 124.44923 | 20545 ft | 361 kts | 138° |
| 2026-04-24 12:20 | 6.85137 | 124.46497 | 20212 ft | 359 kts | 138° |
| 2026-04-24 12:20 | 6.83171 | 124.48090 | 19888 ft | 357 kts | 138° |
| 2026-04-24 12:20 | 6.81241 | 124.49652 | 19572 ft | 355 kts | 138° |
| 2026-04-24 12:21 | 6.79318 | 124.51208 | 19238 ft | 353 kts | 138° |
| 2026-04-24 12:21 | 6.77424 | 124.52743 | 18916 ft | 351 kts | 138° |
| 2026-04-24 12:21 | 6.75511 | 124.54292 | 18593 ft | 350 kts | 138° |
| 2026-04-24 12:21 | 6.73616 | 124.55827 | 18256 ft | 348 kts | 138° |
| 2026-04-24 12:22 | 6.71728 | 124.57356 | 17931 ft | 346 kts | 138° |
| 2026-04-24 12:22 | 6.69871 | 124.58859 | 17619 ft | 344 kts | 138° |
| 2026-04-24 12:22 | 6.68020 | 124.60357 | 17294 ft | 342 kts | 138° |
| 2026-04-24 12:22 | 6.66142 | 124.61862 | 16973 ft | 340 kts | 140° |
| 2026-04-24 12:23 | 6.64258 | 124.63298 | 16650 ft | 339 kts | 141° |
| 2026-04-24 12:23 | 6.62377 | 124.64713 | 16315 ft | 338 kts | 140° |
| 2026-04-24 12:23 | 6.60496 | 124.66129 | 15977 ft | 337 kts | 140° |
| 2026-04-24 12:23 | 6.58614 | 124.67550 | 15636 ft | 336 kts | 140° |
| 2026-04-24 12:24 | 6.56744 | 124.68965 | 15289 ft | 336 kts | 140° |
| 2026-04-24 12:24 | 6.54872 | 124.70383 | 14950 ft | 335 kts | 140° |
| 2026-04-24 12:24 | 6.53011 | 124.71795 | 14619 ft | 334 kts | 140° |
| 2026-04-24 12:24 | 6.51166 | 124.73194 | 14289 ft | 332 kts | 140° |
| 2026-04-24 12:25 | 6.49321 | 124.74595 | 13968 ft | 331 kts | 140° |
| 2026-04-24 12:25 | 6.47479 | 124.75995 | 13640 ft | 330 kts | 140° |
| 2026-04-24 12:25 | 6.45651 | 124.77383 | 13310 ft | 329 kts | 140° |
| 2026-04-24 12:25 | 6.43837 | 124.78759 | 12987 ft | 328 kts | 140° |
| 2026-04-24 12:26 | 6.37369 | 124.84508 | 11732 ft | 319 kts | 123° |
| 2026-04-24 12:27 | 6.36081 | 124.86326 | 11408 ft | 317 kts | 122° |
| 2026-04-24 12:27 | 6.34833 | 124.88141 | 11082 ft | 316 kts | 121° |
| 2026-04-24 12:27 | 6.33595 | 124.89945 | 10762 ft | 315 kts | 122° |
| 2026-04-24 12:27 | 6.32343 | 124.91758 | 10436 ft | 314 kts | 122° |
| 2026-04-24 12:28 | 6.31079 | 124.93571 | 10122 ft | 313 kts | 123° |
| 2026-04-24 12:28 | 6.29756 | 124.95248 | 10058 ft | 303 kts | 127° |
| 2026-04-24 12:28 | 6.28420 | 124.96841 | 10022 ft | 292 kts | 127° |
| 2026-04-24 12:28 | 6.27134 | 124.98369 | 9961 ft | 282 kts | 127° |
| 2026-04-24 12:29 | 6.25873 | 124.99869 | 9667 ft | 282 kts | 127° |
| 2026-04-24 12:29 | 6.24595 | 125.01391 | 9368 ft | 282 kts | 126° |
| 2026-04-24 12:29 | 6.23322 | 125.02908 | 9089 ft | 281 kts | 126° |
| 2026-04-24 12:29 | 6.22066 | 125.04404 | 8815 ft | 281 kts | 126° |
| 2026-04-24 12:30 | 6.20810 | 125.05900 | 8540 ft | 280 kts | 126° |
| 2026-04-24 12:30 | 6.19547 | 125.07404 | 8267 ft | 279 kts | 127° |
| 2026-04-24 12:30 | 6.18295 | 125.08895 | 7999 ft | 278 kts | 127° |
| 2026-04-24 12:30 | 6.17056 | 125.10371 | 7732 ft | 277 kts | 127° |
| 2026-04-24 12:31 | 6.15816 | 125.11848 | 7460 ft | 277 kts | 127° |
| 2026-04-24 12:31 | 6.14564 | 125.13336 | 7202 ft | 275 kts | 127° |
| 2026-04-24 12:31 | 6.13342 | 125.14788 | 6969 ft | 273 kts | 126° |
| 2026-04-24 12:31 | 6.12106 | 125.16258 | 6717 ft | 272 kts | 126° |
| 2026-04-24 12:32 | 6.10837 | 125.17657 | 6441 ft | 274 kts | 138° |
| 2026-04-24 12:32 | 6.09120 | 125.18516 | 6162 ft | 281 kts | 164° |
| 2026-04-24 12:32 | 6.07156 | 125.18803 | 5914 ft | 282 kts | 170° |
| 2026-04-24 12:32 | 6.05211 | 125.19016 | 5660 ft | 282 kts | 171° |
| 2026-04-24 12:33 | 6.03248 | 125.19230 | 5399 ft | 282 kts | 171° |
| 2026-04-24 12:33 | 6.01297 | 125.19451 | 5144 ft | 281 kts | 171° |
| 2026-04-24 12:33 | 5.99339 | 125.19682 | 4883 ft | 281 kts | 170° |
| 2026-04-24 12:33 | 5.97393 | 125.19917 | 4623 ft | 280 kts | 171° |
| 2026-04-24 12:34 | 5.95447 | 125.20154 | 4364 ft | 280 kts | 171° |
| 2026-04-24 12:34 | 5.93512 | 125.20390 | 4106 ft | 280 kts | 170° |
| 2026-04-24 12:34 | 5.91569 | 125.20624 | 3842 ft | 280 kts | 172° |
| 2026-04-24 12:34 | 5.89639 | 125.20440 | 3542 ft | 285 kts | 201° |
| 2026-04-24 12:35 | 5.88077 | 125.19237 | 3276 ft | 287 kts | 235° |
| 2026-04-24 12:35 | 5.87410 | 125.17400 | 3175 ft | 278 kts | 265° |
| 2026-04-24 12:35 | 5.87318 | 125.15492 | 3146 ft | 268 kts | 270° |
| 2026-04-24 12:35 | 5.87493 | 125.13681 | 3017 ft | 259 kts | 292° |
| 2026-04-24 12:36 | 5.88446 | 125.12221 | 2894 ft | 245 kts | 323° |
| 2026-04-24 12:36 | 5.89923 | 125.11483 | 2772 ft | 231 kts | 350° |
| 2026-04-24 12:36 | 5.91509 | 125.11276 | 2656 ft | 223 kts | 359° |
| 2026-04-24 12:36 | 5.93028 | 125.11169 | 2542 ft | 217 kts | 358° |
| 2026-04-24 12:37 | 5.94526 | 125.11021 | 2428 ft | 212 kts | 356° |
| 2026-04-24 12:37 | 5.95954 | 125.10844 | 2263 ft | 200 kts | 355° |
| 2026-04-24 12:37 | 5.97312 | 125.10672 | 2087 ft | 188 kts | 355° |
| 2026-04-24 12:37 | 5.98589 | 125.10514 | 1833 ft | 184 kts | 355° |
| 2026-04-24 12:38 | 5.99861 | 125.10360 | 1562 ft | 181 kts | 355° |
| 2026-04-24 12:38 | 6.01099 | 125.10210 | 1290 ft | 176 kts | 355° |
| 2026-04-24 12:38 | 6.02296 | 125.10062 | 1044 ft | 170 kts | 354° |
| 2026-04-24 12:39 | 6.05668 | 125.09610 | 572 ft | 151 kts | 358° |
| 2026-04-24 12:39 | 6.06827 | 125.09499 | 970 ft | 176 kts | 354° |
| 2026-04-24 12:39 | 6.08065 | 125.09397 | 1621 ft | 185 kts | 6° |
| 2026-04-24 12:40 | 6.09225 | 125.10006 | 1970 ft | 204 kts | 51° |
| 2026-04-24 12:40 | 6.09692 | 125.11377 | 2045 ft | 219 kts | 93° |
| 2026-04-24 12:40 | 6.09096 | 125.12779 | 2056 ft | 225 kts | 131° |
| 2026-04-24 12:40 | 6.07902 | 125.13832 | 2287 ft | 232 kts | 139° |
| 2026-04-24 12:41 | 6.06655 | 125.14835 | 2784 ft | 229 kts | 138° |
| 2026-04-24 12:41 | 6.05347 | 125.15768 | 3015 ft | 231 kts | 154° |
| 2026-04-24 12:41 | 6.03820 | 125.16292 | 3043 ft | 231 kts | 162° |
| 2026-04-24 12:41 | 6.02263 | 125.16698 | 3044 ft | 230 kts | 163° |
| 2026-04-24 12:42 | 6.00721 | 125.17118 | 3042 ft | 229 kts | 162° |
| 2026-04-24 12:42 | 5.99167 | 125.17500 | 2902 ft | 228 kts | 171° |
| 2026-04-24 12:42 | 5.97580 | 125.17584 | 2690 ft | 228 kts | 177° |
| 2026-04-24 12:42 | 5.96003 | 125.17574 | 2575 ft | 222 kts | 179° |
| 2026-04-24 12:43 | 5.94478 | 125.17549 | 2462 ft | 215 kts | 179° |
| 2026-04-24 12:43 | 5.92988 | 125.17501 | 2330 ft | 209 kts | 187° |
| 2026-04-24 12:43 | 5.91692 | 125.16898 | 2178 ft | 204 kts | 225° |
| 2026-04-24 12:43 | 5.91059 | 125.15707 | 2025 ft | 194 kts | 264° |
| 2026-04-24 12:44 | 5.91280 | 125.14441 | 1877 ft | 180 kts | 303° |
| 2026-04-24 12:44 | 5.92088 | 125.13566 | 1747 ft | 162 kts | 324° |
| 2026-04-24 12:44 | 5.92940 | 125.12888 | 1735 ft | 154 kts | 325° |
| 2026-04-24 12:44 | 5.93784 | 125.12228 | 1736 ft | 150 kts | 325° |
| 2026-04-24 12:45 | 5.94604 | 125.11572 | 1738 ft | 148 kts | 325° |
| 2026-04-24 12:45 | 5.95463 | 125.11032 | 1744 ft | 146 kts | 343° |
| 2026-04-24 12:45 | 5.96455 | 125.10785 | 1759 ft | 147 kts | 353° |
| 2026-04-24 12:45 | 5.97478 | 125.10639 | 1759 ft | 148 kts | 355° |
| 2026-04-24 12:46 | 5.98502 | 125.10523 | 1762 ft | 148 kts | 355° |
| 2026-04-24 12:46 | 5.99532 | 125.10403 | 1646 ft | 149 kts | 355° |
| 2026-04-24 12:46 | 6.00563 | 125.10277 | 1401 ft | 147 kts | 354° |
| 2026-04-24 12:46 | 6.01582 | 125.10150 | 1197 ft | 147 kts | 354° |
| 2026-04-24 12:47 | 6.02604 | 125.10025 | 969 ft | 147 kts | 354° |
| 2026-04-24 12:47 | 6.03625 | 125.09893 | 714 ft | 145 kts | 354° |
| 2026-04-24 12:47 | 6.04607 | 125.09760 | 551 ft | 139 kts | 354° |
| 2026-04-24 12:47 | 6.05493 | 125.09642 | 544 ft | 121 kts | 357° |
| 2026-04-24 12:48 | 6.06050 | 125.09588 | 544 ft | 49 kts | 353° |
| 2026-04-24 12:48 | 6.06351 | 125.09551 | 543 ft | 28 kts | 354° |
| 2026-04-24 12:48 | 6.06459 | 125.09547 | 543 ft | 5 kts | 358° |
| 2026-04-24 12:48 | 6.06470 | 125.09538 | 543 ft | 2 kts | 277° |
| 2026-04-24 12:49 | 6.06457 | 125.09530 | 543 ft | 4 kts | 186° |
| 2026-04-24 12:49 | 6.06412 | 125.09537 | 543 ft | 9 kts | 167° |
| 2026-04-24 12:49 | 6.06328 | 125.09553 | 543 ft | 14 kts | 172° |
| 2026-04-24 12:49 | 6.06208 | 125.09568 | 543 ft | 19 kts | 173° |
| 2026-04-24 12:50 | 6.06072 | 125.09585 | 544 ft | 19 kts | 173° |
| 2026-04-24 12:50 | 6.05935 | 125.09602 | 544 ft | 19 kts | 173° |
| 2026-04-24 12:50 | 6.05849 | 125.09616 | 544 ft | 10 kts | 153° |
| 2026-04-24 12:50 | 6.05823 | 125.09680 | 543 ft | 11 kts | 85° |
| 2026-04-24 12:51 | 6.05833 | 125.09759 | 543 ft | 11 kts | 83° |
| 2026-04-24 12:51 | 6.05836 | 125.09836 | 543 ft | 9 kts | 110° |
| 2026-04-24 12:51 | 6.05787 | 125.09872 | 543 ft | 6 kts | 168° |
| 2026-04-24 12:51 | 6.05773 | 125.09882 | 543 ft | 2 kts | 108° |
| 2026-04-24 12:52 | 6.05770 | 125.09901 | 543 ft | 3 kts | 90° |
| 2026-04-24 12:52 | 6.05772 | 125.09924 | 543 ft | 3 kts | 83° |
| 2026-04-24 12:52 | 6.05775 | 125.09949 | 543 ft | 2 kts | 83° |
| 2026-04-24 12:52 | 6.05775 | 125.09950 | 543 ft | 0 kts | 83° |